sensor_id;sensor_type;location;lat;lon;timestamp;pressure;altitude;pressure_sealevel;temperature;humidity
77250;BME280;66287;42.658;27.568;2023-02-15T00:01:10;101309.91;;;9.64;45.17
77250;BME280;66287;42.658;27.568;2023-02-15T00:03:36;101319.59;;;9.59;45.03
77250;BME280;66287;42.658;27.568;2023-02-15T00:06:01;101318.06;;;9.56;44.64
77250;BME280;66287;42.658;27.568;2023-02-15T00:08:27;101318.22;;;9.55;45.10
77250;BME280;66287;42.658;27.568;2023-02-15T00:10:52;101321.94;;;9.54;45.14
77250;BME280;66287;42.658;27.568;2023-02-15T00:13:18;101325.81;;;9.51;44.60
77250;BME280;66287;42.658;27.568;2023-02-15T00:15:43;101323.44;;;9.48;45.09
77250;BME280;66287;42.658;27.568;2023-02-15T00:18:08;101328.19;;;9.46;45.40
77250;BME280;66287;42.658;27.568;2023-02-15T00:20:34;101323.09;;;9.43;44.61
77250;BME280;66287;42.658;27.568;2023-02-15T00:22:59;101325.50;;;9.38;45.01
77250;BME280;66287;42.658;27.568;2023-02-15T00:25:25;101320.72;;;9.32;46.07
77250;BME280;66287;42.658;27.568;2023-02-15T00:27:50;101321.91;;;9.29;46.19
77250;BME280;66287;42.658;27.568;2023-02-15T00:30:15;101308.38;;;9.29;46.56
77250;BME280;66287;42.658;27.568;2023-02-15T00:32:41;101321.22;;;9.27;45.92
77250;BME280;66287;42.658;27.568;2023-02-15T00:35:06;101326.47;;;9.29;45.78
77250;BME280;66287;42.658;27.568;2023-02-15T00:37:32;101311.41;;;9.26;45.82
77250;BME280;66287;42.658;27.568;2023-02-15T00:39:58;101321.72;;;9.23;46.47
77250;BME280;66287;42.658;27.568;2023-02-15T00:42:23;101316.47;;;9.21;45.94
77250;BME280;66287;42.658;27.568;2023-02-15T00:44:50;101309.72;;;9.17;46.67
77250;BME280;66287;42.658;27.568;2023-02-15T00:47:16;101302.63;;;9.16;46.45
77250;BME280;66287;42.658;27.568;2023-02-15T00:49:42;101305.66;;;9.13;46.47
77250;BME280;66287;42.658;27.568;2023-02-15T00:52:07;101313.94;;;9.12;46.87
77250;BME280;66287;42.658;27.568;2023-02-15T00:54:32;101308.84;;;9.09;46.42
77250;BME280;66287;42.658;27.568;2023-02-15T00:56:59;101311.03;;;9.05;46.85
77250;BME280;66287;42.658;27.568;2023-02-15T00:59:25;101305.97;;;9.02;46.14
77250;BME280;66287;42.658;27.568;2023-02-15T01:01:50;101305.47;;;8.98;45.76
77250;BME280;66287;42.658;27.568;2023-02-15T01:04:18;101308.34;;;8.97;47.01
77250;BME280;66287;42.658;27.568;2023-02-15T01:06:43;101304.94;;;8.95;46.89
77250;BME280;66287;42.658;27.568;2023-02-15T01:09:08;101293.09;;;8.88;47.58
77250;BME280;66287;42.658;27.568;2023-02-15T01:11:35;101299.16;;;8.82;46.66
77250;BME280;66287;42.658;27.568;2023-02-15T01:14:01;101294.59;;;8.74;47.21
77250;BME280;66287;42.658;27.568;2023-02-15T01:16:28;101296.75;;;8.71;47.53
77250;BME280;66287;42.658;27.568;2023-02-15T01:18:53;101292.00;;;8.64;47.54
77250;BME280;66287;42.658;27.568;2023-02-15T01:21:20;101294.34;;;8.59;47.48
77250;BME280;66287;42.658;27.568;2023-02-15T01:23:46;101295.03;;;8.53;47.70
77250;BME280;66287;42.658;27.568;2023-02-15T01:26:11;101299.38;;;8.46;48.26
77250;BME280;66287;42.658;27.568;2023-02-15T01:28:37;101287.53;;;8.39;48.01
77250;BME280;66287;42.658;27.568;2023-02-15T01:31:10;101294.44;;;8.34;47.96
77250;BME280;66287;42.658;27.568;2023-02-15T01:33:36;101287.09;;;8.26;47.92
77250;BME280;66287;42.658;27.568;2023-02-15T01:36:02;101286.88;;;8.19;48.29
77250;BME280;66287;42.658;27.568;2023-02-15T01:38:28;101285.84;;;8.12;47.84
77250;BME280;66287;42.658;27.568;2023-02-15T01:40:53;101281.75;;;8.08;48.20
77250;BME280;66287;42.658;27.568;2023-02-15T01:43:43;101291.88;;;8.06;48.25
77250;BME280;66287;42.658;27.568;2023-02-15T01:46:09;101293.19;;;8.02;48.61
77250;BME280;66287;42.658;27.568;2023-02-15T01:48:36;101291.16;;;7.96;48.20
77250;BME280;66287;42.658;27.568;2023-02-15T01:51:06;101288.69;;;7.85;48.79
77250;BME280;66287;42.658;27.568;2023-02-15T01:53:34;101289.00;;;7.82;49.06
77250;BME280;66287;42.658;27.568;2023-02-15T01:56:09;101280.72;;;7.75;48.41
77250;BME280;66287;42.658;27.568;2023-02-15T01:58:36;101273.78;;;7.73;49.22
77250;BME280;66287;42.658;27.568;2023-02-15T02:01:02;101287.44;;;7.71;49.31
77250;BME280;66287;42.658;27.568;2023-02-15T02:06:13;101281.66;;;7.66;48.85
77250;BME280;66287;42.658;27.568;2023-02-15T02:08:39;101271.03;;;7.65;49.42
77250;BME280;66287;42.658;27.568;2023-02-15T02:11:11;101276.41;;;7.65;49.06
77250;BME280;66287;42.658;27.568;2023-02-15T02:13:38;101278.41;;;7.63;49.09
77250;BME280;66287;42.658;27.568;2023-02-15T02:31:36;101275.88;;;7.35;52.04
77250;BME280;66287;42.658;27.568;2023-02-15T02:36:53;101275.72;;;7.63;51.52
77250;BME280;66287;42.658;27.568;2023-02-15T02:42:04;101278.75;;;7.85;51.73
77250;BME280;66287;42.658;27.568;2023-02-15T02:44:43;101274.13;;;7.95;52.07
77250;BME280;66287;42.658;27.568;2023-02-15T02:47:11;101278.22;;;8.08;51.69
77250;BME280;66287;42.658;27.568;2023-02-15T02:49:39;101284.38;;;8.18;50.95
77250;BME280;66287;42.658;27.568;2023-02-15T02:52:07;101289.94;;;8.24;50.90
77250;BME280;66287;42.658;27.568;2023-02-15T02:54:33;101299.25;;;8.30;52.08
77250;BME280;66287;42.658;27.568;2023-02-15T02:57:01;101302.53;;;8.34;51.25
77250;BME280;66287;42.658;27.568;2023-02-15T02:59:33;101293.94;;;8.38;51.40
77250;BME280;66287;42.658;27.568;2023-02-15T03:04:39;101296.72;;;8.54;51.25
77250;BME280;66287;42.658;27.568;2023-02-15T03:07:15;101291.31;;;8.62;50.49
77250;BME280;66287;42.658;27.568;2023-02-15T03:09:50;101293.69;;;8.66;50.71
77250;BME280;66287;42.658;27.568;2023-02-15T03:12:20;101295.59;;;8.73;51.07
77250;BME280;66287;42.658;27.568;2023-02-15T03:14:48;101300.31;;;8.79;50.68
77250;BME280;66287;42.658;27.568;2023-02-15T03:17:15;101310.50;;;8.85;50.00
77250;BME280;66287;42.658;27.568;2023-02-15T03:19:42;101312.03;;;8.88;50.42
77250;BME280;66287;42.658;27.568;2023-02-15T03:22:17;101319.31;;;8.95;51.22
77250;BME280;66287;42.658;27.568;2023-02-15T03:27:22;101330.81;;;9.06;49.95
77250;BME280;66287;42.658;27.568;2023-02-15T03:29:52;101331.84;;;9.13;50.76
77250;BME280;66287;42.658;27.568;2023-02-15T03:32:18;101327.13;;;9.15;50.45
77250;BME280;66287;42.658;27.568;2023-02-15T03:34:44;101324.75;;;9.20;49.63
77250;BME280;66287;42.658;27.568;2023-02-15T03:42:27;101324.28;;;9.32;47.46
77250;BME280;66287;42.658;27.568;2023-02-15T03:47:23;101347.91;;;9.22;46.87
77250;BME280;66287;42.658;27.568;2023-02-15T03:50:01;101353.16;;;9.16;47.62
77250;BME280;66287;42.658;27.568;2023-02-15T03:52:27;101345.72;;;9.10;47.80
77250;BME280;66287;42.658;27.568;2023-02-15T03:54:54;101358.34;;;9.01;47.71
77250;BME280;66287;42.658;27.568;2023-02-15T03:57:22;101354.63;;;8.94;47.71
77250;BME280;66287;42.658;27.568;2023-02-15T04:00:19;101355.28;;;8.88;47.57
77250;BME280;66287;42.658;27.568;2023-02-15T04:05:29;101358.44;;;8.75;47.20
77250;BME280;66287;42.658;27.568;2023-02-15T04:07:55;101352.66;;;8.70;47.79
77250;BME280;66287;42.658;27.568;2023-02-15T04:10:20;101361.41;;;8.64;47.89
77250;BME280;66287;42.658;27.568;2023-02-15T04:13:04;101364.78;;;8.58;48.12
77250;BME280;66287;42.658;27.568;2023-02-15T04:15:30;101368.13;;;8.52;48.29
77250;BME280;66287;42.658;27.568;2023-02-15T04:18:14;101374.16;;;8.46;48.26
77250;BME280;66287;42.658;27.568;2023-02-15T04:20:42;101369.06;;;8.43;47.97
77250;BME280;66287;42.658;27.568;2023-02-15T04:23:26;101366.34;;;8.35;47.98
77250;BME280;66287;42.658;27.568;2023-02-15T04:26:10;101386.00;;;8.27;48.10
77250;BME280;66287;42.658;27.568;2023-02-15T04:28:35;101377.69;;;8.20;48.31
77250;BME280;66287;42.658;27.568;2023-02-15T04:31:01;101378.19;;;8.16;48.25
77250;BME280;66287;42.658;27.568;2023-02-15T04:33:26;101385.91;;;8.11;48.52
77250;BME280;66287;42.658;27.568;2023-02-15T04:35:51;101393.31;;;8.09;48.75
77250;BME280;66287;42.658;27.568;2023-02-15T04:38:17;101385.50;;;8.06;48.50
77250;BME280;66287;42.658;27.568;2023-02-15T04:40:42;101392.22;;;8.02;48.59
77250;BME280;66287;42.658;27.568;2023-02-15T04:43:07;101385.47;;;7.98;48.49
77250;BME280;66287;42.658;27.568;2023-02-15T04:45:33;101394.03;;;7.93;48.67
77250;BME280;66287;42.658;27.568;2023-02-15T04:47:58;101393.50;;;7.89;48.81
77250;BME280;66287;42.658;27.568;2023-02-15T04:50:24;101400.88;;;7.87;47.91
77250;BME280;66287;42.658;27.568;2023-02-15T04:52:49;101391.41;;;7.83;48.40
77250;BME280;66287;42.658;27.568;2023-02-15T04:55:14;101403.69;;;7.78;48.32
77250;BME280;66287;42.658;27.568;2023-02-15T04:57:40;101401.59;;;7.72;48.73
77250;BME280;66287;42.658;27.568;2023-02-15T05:00:05;101409.31;;;7.67;48.47
77250;BME280;66287;42.658;27.568;2023-02-15T05:02:31;101408.63;;;7.65;48.66
77250;BME280;66287;42.658;27.568;2023-02-15T05:04:56;101410.63;;;7.63;48.40
77250;BME280;66287;42.658;27.568;2023-02-15T05:07:22;101403.84;;;7.58;48.33
77250;BME280;66287;42.658;27.568;2023-02-15T05:09:47;101418.25;;;7.49;48.71
77250;BME280;66287;42.658;27.568;2023-02-15T05:12:12;101414.00;;;7.47;49.16
77250;BME280;66287;42.658;27.568;2023-02-15T05:14:38;101416.84;;;7.45;49.26
77250;BME280;66287;42.658;27.568;2023-02-15T05:17:03;101421.09;;;7.48;48.96
77250;BME280;66287;42.658;27.568;2023-02-15T05:19:30;101419.41;;;7.47;48.61
77250;BME280;66287;42.658;27.568;2023-02-15T05:21:55;101428.50;;;7.46;49.33
77250;BME280;66287;42.658;27.568;2023-02-15T05:24:21;101422.25;;;7.45;48.62
77250;BME280;66287;42.658;27.568;2023-02-15T05:27:05;101430.19;;;7.47;48.71
77250;BME280;66287;42.658;27.568;2023-02-15T05:29:48;101434.44;;;7.49;49.27
77250;BME280;66287;42.658;27.568;2023-02-15T05:32:14;101434.69;;;7.56;49.33
77250;BME280;66287;42.658;27.568;2023-02-15T05:34:39;101444.63;;;7.73;49.20
77250;BME280;66287;42.658;27.568;2023-02-15T05:37:05;101432.97;;;7.90;48.45
77250;BME280;66287;42.658;27.568;2023-02-15T05:39:30;101449.16;;;8.08;48.47
77250;BME280;66287;42.658;27.568;2023-02-15T05:41:58;101448.56;;;8.22;47.66
77250;BME280;66287;42.658;27.568;2023-02-15T05:44:23;101457.00;;;8.37;48.26
77250;BME280;66287;42.658;27.568;2023-02-15T05:46:49;101448.00;;;8.54;48.28
77250;BME280;66287;42.658;27.568;2023-02-15T05:49:14;101458.97;;;8.79;47.99
77250;BME280;66287;42.658;27.568;2023-02-15T05:51:40;101470.41;;;9.07;47.92
77250;BME280;66287;42.658;27.568;2023-02-15T05:54:05;101469.19;;;9.35;48.14
77250;BME280;66287;42.658;27.568;2023-02-15T05:56:30;101464.34;;;9.63;47.43
77250;BME280;66287;42.658;27.568;2023-02-15T05:58:56;101472.88;;;9.92;46.69
77250;BME280;66287;42.658;27.568;2023-02-15T06:01:21;101473.25;;;10.22;46.53
77250;BME280;66287;42.658;27.568;2023-02-15T06:03:48;101471.88;;;10.50;46.80
77250;BME280;66287;42.658;27.568;2023-02-15T06:06:13;101468.25;;;10.82;45.84
77250;BME280;66287;42.658;27.568;2023-02-15T06:08:39;101478.53;;;11.11;45.49
77250;BME280;66287;42.658;27.568;2023-02-15T06:11:04;101476.69;;;11.43;44.85
77250;BME280;66287;42.658;27.568;2023-02-15T06:13:30;101483.81;;;11.74;44.55
77250;BME280;66287;42.658;27.568;2023-02-15T06:15:56;101481.06;;;12.05;44.04
77250;BME280;66287;42.658;27.568;2023-02-15T06:18:21;101476.44;;;12.37;43.87
77250;BME280;66287;42.658;27.568;2023-02-15T06:20:46;101484.25;;;12.69;43.55
77250;BME280;66287;42.658;27.568;2023-02-15T06:23:12;101485.59;;;13.03;43.28
77250;BME280;66287;42.658;27.568;2023-02-15T06:25:37;101489.06;;;13.41;43.83
77250;BME280;66287;42.658;27.568;2023-02-15T06:28:03;101494.56;;;13.77;43.40
77250;BME280;66287;42.658;27.568;2023-02-15T06:30:28;101498.09;;;14.13;43.25
77250;BME280;66287;42.658;27.568;2023-02-15T06:32:54;101487.31;;;14.48;42.38
77250;BME280;66287;42.658;27.568;2023-02-15T06:35:19;101492.00;;;14.82;41.77
77250;BME280;66287;42.658;27.568;2023-02-15T06:37:45;101488.66;;;15.14;41.32
77250;BME280;66287;42.658;27.568;2023-02-15T06:40:11;101492.19;;;15.49;40.62
77250;BME280;66287;42.658;27.568;2023-02-15T06:42:37;101491.47;;;15.82;39.78
77250;BME280;66287;42.658;27.568;2023-02-15T06:45:02;101494.09;;;16.10;37.54
77250;BME280;66287;42.658;27.568;2023-02-15T06:47:28;101493.28;;;16.36;37.35
77250;BME280;66287;42.658;27.568;2023-02-15T06:49:53;101479.59;;;16.62;36.49
77250;BME280;66287;42.658;27.568;2023-02-15T06:52:19;101493.28;;;16.82;32.34
77250;BME280;66287;42.658;27.568;2023-02-15T06:54:44;101487.59;;;16.97;33.99
77250;BME280;66287;42.658;27.568;2023-02-15T06:57:09;101499.75;;;17.27;33.43
77250;BME280;66287;42.658;27.568;2023-02-15T06:59:35;101496.94;;;17.47;33.30
77250;BME280;66287;42.658;27.568;2023-02-15T07:02:00;101504.31;;;17.46;31.69
77250;BME280;66287;42.658;27.568;2023-02-15T07:04:25;101499.81;;;17.58;30.50
77250;BME280;66287;42.658;27.568;2023-02-15T07:06:53;101497.94;;;17.66;29.73
77250;BME280;66287;42.658;27.568;2023-02-15T07:09:19;101503.25;;;17.47;31.06
77250;BME280;66287;42.658;27.568;2023-02-15T07:11:44;101499.09;;;17.38;30.33
77250;BME280;66287;42.658;27.568;2023-02-15T07:14:28;101509.78;;;17.46;30.96
77250;BME280;66287;42.658;27.568;2023-02-15T07:16:53;101499.25;;;17.50;28.75
77250;BME280;66287;42.658;27.568;2023-02-15T07:19:18;101501.34;;;17.54;28.92
77250;BME280;66287;42.658;27.568;2023-02-15T07:21:47;101505.34;;;18.03;30.94
77250;BME280;66287;42.658;27.568;2023-02-15T07:24:13;101502.00;;;18.33;27.80
77250;BME280;66287;42.658;27.568;2023-02-15T07:26:39;101501.53;;;18.04;27.92
77250;BME280;66287;42.658;27.568;2023-02-15T07:29:04;101509.72;;;18.42;29.29
77250;BME280;66287;42.658;27.568;2023-02-15T07:31:30;101506.75;;;18.75;27.82
77250;BME280;66287;42.658;27.568;2023-02-15T07:33:55;101493.34;;;19.04;27.58
77250;BME280;66287;42.658;27.568;2023-02-15T07:36:21;101503.75;;;19.20;26.56
77250;BME280;66287;42.658;27.568;2023-02-15T07:38:46;101496.72;;;19.42;26.03
77250;BME280;66287;42.658;27.568;2023-02-15T07:41:12;101498.25;;;19.20;26.79
77250;BME280;66287;42.658;27.568;2023-02-15T07:43:39;101503.00;;;19.13;26.17
77250;BME280;66287;42.658;27.568;2023-02-15T07:46:07;101499.72;;;19.22;26.04
77250;BME280;66287;42.658;27.568;2023-02-15T07:48:33;101504.59;;;19.39;25.78
77250;BME280;66287;42.658;27.568;2023-02-15T07:51:00;101503.16;;;19.73;25.98
77250;BME280;66287;42.658;27.568;2023-02-15T07:53:25;101501.78;;;20.12;24.88
77250;BME280;66287;42.658;27.568;2023-02-15T07:55:51;101509.91;;;20.37;25.12
77250;BME280;66287;42.658;27.568;2023-02-15T07:58:17;101510.25;;;20.40;23.59
77250;BME280;66287;42.658;27.568;2023-02-15T08:00:43;101509.75;;;20.32;24.97
77250;BME280;66287;42.658;27.568;2023-02-15T08:03:26;101499.47;;;19.97;25.26
77250;BME280;66287;42.658;27.568;2023-02-15T08:05:55;101510.88;;;20.12;24.73
77250;BME280;66287;42.658;27.568;2023-02-15T08:08:21;101515.19;;;20.38;25.18
77250;BME280;66287;42.658;27.568;2023-02-15T08:13:43;101520.34;;;20.16;23.65
77250;BME280;66287;42.658;27.568;2023-02-15T08:18:56;101516.75;;;19.31;24.40
77250;BME280;66287;42.658;27.568;2023-02-15T08:21:22;101517.69;;;19.00;25.37
77250;BME280;66287;42.658;27.568;2023-02-15T08:23:49;101530.69;;;18.68;24.35
77250;BME280;66287;42.658;27.568;2023-02-15T08:26:15;101526.06;;;18.62;25.31
77250;BME280;66287;42.658;27.568;2023-02-15T08:28:42;101527.97;;;19.30;24.66
77250;BME280;66287;42.658;27.568;2023-02-15T08:31:08;101521.03;;;19.45;23.85
77250;BME280;66287;42.658;27.568;2023-02-15T08:33:34;101518.88;;;19.47;24.01
77250;BME280;66287;42.658;27.568;2023-02-15T08:36:07;101524.53;;;19.16;23.71
77250;BME280;66287;42.658;27.568;2023-02-15T08:38:33;101522.63;;;19.16;24.20
77250;BME280;66287;42.658;27.568;2023-02-15T08:41:08;101527.69;;;19.38;24.04
77250;BME280;66287;42.658;27.568;2023-02-15T08:43:33;101518.59;;;19.74;23.73
77250;BME280;66287;42.658;27.568;2023-02-15T08:45:59;101519.03;;;20.19;22.92
77250;BME280;66287;42.658;27.568;2023-02-15T08:48:24;101526.19;;;20.08;24.01
77250;BME280;66287;42.658;27.568;2023-02-15T08:50:50;101525.88;;;20.28;23.43
77250;BME280;66287;42.658;27.568;2023-02-15T08:53:15;101530.19;;;20.24;23.21
77250;BME280;66287;42.658;27.568;2023-02-15T08:55:40;101527.91;;;20.51;23.76
77250;BME280;66287;42.658;27.568;2023-02-15T08:58:06;101523.25;;;20.63;22.48
77250;BME280;66287;42.658;27.568;2023-02-15T09:00:31;101527.09;;;20.85;22.09
77250;BME280;66287;42.658;27.568;2023-02-15T09:02:57;101519.91;;;20.73;22.33
77250;BME280;66287;42.658;27.568;2023-02-15T09:05:22;101518.84;;;20.74;22.31
77250;BME280;66287;42.658;27.568;2023-02-15T09:07:47;101515.63;;;20.35;22.64
77250;BME280;66287;42.658;27.568;2023-02-15T09:10:13;101520.91;;;20.07;22.85
77250;BME280;66287;42.658;27.568;2023-02-15T09:12:38;101515.56;;;20.53;23.29
77250;BME280;66287;42.658;27.568;2023-02-15T09:15:04;101518.03;;;20.96;23.76
77250;BME280;66287;42.658;27.568;2023-02-15T09:17:29;101517.88;;;21.15;21.89
77250;BME280;66287;42.658;27.568;2023-02-15T09:19:55;101514.41;;;20.84;22.33
77250;BME280;66287;42.658;27.568;2023-02-15T09:22:20;101525.19;;;21.44;21.94
77250;BME280;66287;42.658;27.568;2023-02-15T09:24:45;101513.50;;;21.65;23.04
77250;BME280;66287;42.658;27.568;2023-02-15T09:27:11;101515.59;;;21.47;22.59
77250;BME280;66287;42.658;27.568;2023-02-15T09:29:36;101519.56;;;21.39;21.79
77250;BME280;66287;42.658;27.568;2023-02-15T09:32:02;101518.13;;;21.02;21.42
77250;BME280;66287;42.658;27.568;2023-02-15T09:34:27;101521.50;;;21.15;21.89
77250;BME280;66287;42.658;27.568;2023-02-15T09:36:53;101522.66;;;21.54;22.88
77250;BME280;66287;42.658;27.568;2023-02-15T09:39:19;101518.16;;;21.77;22.00
77250;BME280;66287;42.658;27.568;2023-02-15T09:49:21;101512.56;;;19.65;23.58
77250;BME280;66287;42.658;27.568;2023-02-15T09:51:54;101506.16;;;20.01;24.09
77250;BME280;66287;42.658;27.568;2023-02-15T09:54:38;101521.47;;;20.80;23.89
77250;BME280;66287;42.658;27.568;2023-02-15T09:57:10;101512.00;;;20.76;22.48
77250;BME280;66287;42.658;27.568;2023-02-15T10:02:11;101508.31;;;21.29;23.40
77250;BME280;66287;42.658;27.568;2023-02-15T10:09:42;101507.13;;;21.77;22.64
77250;BME280;66287;42.658;27.568;2023-02-15T10:12:35;101513.78;;;20.82;23.77
77250;BME280;66287;42.658;27.568;2023-02-15T10:26:00;101492.28;;;19.05;23.97
77250;BME280;66287;42.658;27.568;2023-02-15T10:28:42;101494.28;;;18.98;24.01
77250;BME280;66287;42.658;27.568;2023-02-15T10:31:15;101490.78;;;19.45;24.35
77250;BME280;66287;42.658;27.568;2023-02-15T10:33:43;101497.22;;;19.76;23.90
77250;BME280;66287;42.658;27.568;2023-02-15T10:39:02;101500.03;;;20.71;23.54
77250;BME280;66287;42.658;27.568;2023-02-15T10:54:36;101481.75;;;20.35;23.83
77250;BME280;66287;42.658;27.568;2023-02-15T10:59:56;101480.19;;;20.39;23.43
77250;BME280;66287;42.658;27.568;2023-02-15T11:07:29;101473.91;;;21.08;22.84
77250;BME280;66287;42.658;27.568;2023-02-15T11:10:05;101475.41;;;21.39;22.04
77250;BME280;66287;42.658;27.568;2023-02-15T11:12:32;101476.19;;;21.63;21.71
77250;BME280;66287;42.658;27.568;2023-02-15T11:15:00;101463.59;;;21.27;23.18
77250;BME280;66287;42.658;27.568;2023-02-15T11:17:35;101462.53;;;20.70;23.12
77250;BME280;66287;42.658;27.568;2023-02-15T11:22:48;101468.88;;;20.70;23.24
77250;BME280;66287;42.658;27.568;2023-02-15T11:25:19;101459.41;;;20.89;22.77
77250;BME280;66287;42.658;27.568;2023-02-15T11:27:46;101455.19;;;21.74;22.30
77250;BME280;66287;42.658;27.568;2023-02-15T11:30:13;101461.84;;;22.18;21.27
77250;BME280;66287;42.658;27.568;2023-02-15T11:32:40;101454.72;;;21.65;20.77
77250;BME280;66287;42.658;27.568;2023-02-15T11:40:21;101464.31;;;22.03;21.53
77250;BME280;66287;42.658;27.568;2023-02-15T11:42:49;101463.06;;;22.10;21.76
77250;BME280;66287;42.658;27.568;2023-02-15T11:45:28;101454.84;;;21.58;21.87
77250;BME280;66287;42.658;27.568;2023-02-15T11:47:54;101456.22;;;21.44;22.41
77250;BME280;66287;42.658;27.568;2023-02-15T11:50:22;101454.47;;;21.38;22.77
77250;BME280;66287;42.658;27.568;2023-02-15T11:52:51;101456.13;;;21.39;22.53
77250;BME280;66287;42.658;27.568;2023-02-15T11:55:19;101451.78;;;21.55;22.18
77250;BME280;66287;42.658;27.568;2023-02-15T11:57:47;101459.25;;;21.19;21.68
77250;BME280;66287;42.658;27.568;2023-02-15T12:00:34;101448.84;;;20.63;22.92
77250;BME280;66287;42.658;27.568;2023-02-15T12:03:02;101440.22;;;20.48;24.36
77250;BME280;66287;42.658;27.568;2023-02-15T12:05:31;101449.59;;;20.93;23.15
77250;BME280;66287;42.658;27.568;2023-02-15T12:08:00;101435.69;;;20.53;23.51
77250;BME280;66287;42.658;27.568;2023-02-15T12:10:31;101438.81;;;20.92;23.00
77250;BME280;66287;42.658;27.568;2023-02-15T12:13:15;101431.81;;;21.13;22.84
77250;BME280;66287;42.658;27.568;2023-02-15T12:15:46;101440.81;;;21.31;21.07
77250;BME280;66287;42.658;27.568;2023-02-15T12:18:26;101428.75;;;20.51;22.27
77250;BME280;66287;42.658;27.568;2023-02-15T12:21:00;101430.91;;;21.47;22.46
77250;BME280;66287;42.658;27.568;2023-02-15T12:23:28;101431.28;;;21.39;21.59
77250;BME280;66287;42.658;27.568;2023-02-15T12:25:55;101425.94;;;21.33;23.74
77250;BME280;66287;42.658;27.568;2023-02-15T12:28:34;101429.53;;;21.61;22.44
77250;BME280;66287;42.658;27.568;2023-02-15T12:31:02;101436.25;;;21.25;22.13
77250;BME280;66287;42.658;27.568;2023-02-15T12:35:56;101428.00;;;20.44;22.37
77250;BME280;66287;42.658;27.568;2023-02-15T12:38:23;101421.44;;;20.45;22.90
77250;BME280;66287;42.658;27.568;2023-02-15T12:41:03;101424.53;;;20.48;22.60
77250;BME280;66287;42.658;27.568;2023-02-15T12:43:32;101426.94;;;20.80;22.57
77250;BME280;66287;42.658;27.568;2023-02-15T12:48:41;101421.41;;;22.28;21.37
77250;BME280;66287;42.658;27.568;2023-02-15T12:51:07;101425.66;;;22.19;20.51
77250;BME280;66287;42.658;27.568;2023-02-15T12:53:35;101419.56;;;22.51;21.09
77250;BME280;66287;42.658;27.568;2023-02-15T12:56:01;101414.75;;;23.40;20.62
77250;BME280;66287;42.658;27.568;2023-02-15T12:58:28;101419.41;;;24.10;18.89
77250;BME280;66287;42.658;27.568;2023-02-15T13:01:14;101411.25;;;24.99;19.01
77250;BME280;66287;42.658;27.568;2023-02-15T13:06:16;101411.06;;;25.94;17.77
77250;BME280;66287;42.658;27.568;2023-02-15T13:08:46;101403.81;;;26.03;18.36
77250;BME280;66287;42.658;27.568;2023-02-15T13:11:28;101403.78;;;25.67;16.78
77250;BME280;66287;42.658;27.568;2023-02-15T13:14:34;101400.03;;;23.83;18.53
77250;BME280;66287;42.658;27.568;2023-02-15T13:17:03;101403.69;;;22.96;18.82
77250;BME280;66287;42.658;27.568;2023-02-15T13:19:32;101409.59;;;22.50;19.31
77250;BME280;66287;42.658;27.568;2023-02-15T13:21:59;101405.38;;;22.81;20.84
77250;BME280;66287;42.658;27.568;2023-02-15T13:24:26;101411.69;;;23.36;18.33
77250;BME280;66287;42.658;27.568;2023-02-15T13:26:54;101404.16;;;23.32;17.96
77250;BME280;66287;42.658;27.568;2023-02-15T13:29:30;101405.38;;;22.81;18.50
77250;BME280;66287;42.658;27.568;2023-02-15T13:31:57;101403.81;;;22.68;18.71
77250;BME280;66287;42.658;27.568;2023-02-15T13:34:33;101408.28;;;22.36;18.53
77250;BME280;66287;42.658;27.568;2023-02-15T13:40:02;101407.44;;;20.58;21.10
77250;BME280;66287;42.658;27.568;2023-02-15T13:42:41;101412.06;;;20.34;21.43
77250;BME280;66287;42.658;27.568;2023-02-15T13:53:17;101409.59;;;19.43;21.91
77250;BME280;66287;42.658;27.568;2023-02-15T14:11:22;101397.88;;;20.19;21.50
77250;BME280;66287;42.658;27.568;2023-02-15T14:21:34;101399.94;;;20.12;23.02
77250;BME280;66287;42.658;27.568;2023-02-15T14:24:18;101390.38;;;20.14;21.97
77250;BME280;66287;42.658;27.568;2023-02-15T14:26:52;101401.09;;;19.63;22.68
77250;BME280;66287;42.658;27.568;2023-02-15T14:29:28;101401.13;;;19.26;22.95
77250;BME280;66287;42.658;27.568;2023-02-15T14:32:03;101404.13;;;18.88;23.51
77250;BME280;66287;42.658;27.568;2023-02-15T14:36:54;101411.66;;;17.62;24.62
77250;BME280;66287;42.658;27.568;2023-02-15T14:39:31;101421.84;;;17.54;25.38
77250;BME280;66287;42.658;27.568;2023-02-15T14:47:36;101407.03;;;17.69;25.22
77250;BME280;66287;42.658;27.568;2023-02-15T14:55:35;101402.88;;;17.53;25.37
77250;BME280;66287;42.658;27.568;2023-02-15T14:58:01;101416.72;;;17.71;26.37
77250;BME280;66287;42.658;27.568;2023-02-15T15:00:34;101418.28;;;17.92;25.82
77250;BME280;66287;42.658;27.568;2023-02-15T15:03:02;101409.75;;;18.00;26.23
77250;BME280;66287;42.658;27.568;2023-02-15T15:05:35;101408.91;;;18.00;26.37
77250;BME280;66287;42.658;27.568;2023-02-15T15:08:19;101410.44;;;17.96;26.97
77250;BME280;66287;42.658;27.568;2023-02-15T15:10:46;101413.56;;;17.99;27.17
77250;BME280;66287;42.658;27.568;2023-02-15T15:15:55;101412.59;;;17.87;27.36
77250;BME280;66287;42.658;27.568;2023-02-15T15:21:04;101412.09;;;17.65;27.95
77250;BME280;66287;42.658;27.568;2023-02-15T15:23:38;101420.16;;;17.53;28.26
77250;BME280;66287;42.658;27.568;2023-02-15T15:36:38;101430.03;;;17.16;29.32
77250;BME280;66287;42.658;27.568;2023-02-15T15:41:58;101432.84;;;16.97;29.62
77250;BME280;66287;42.658;27.568;2023-02-15T15:49:24;101429.09;;;16.71;29.74
77250;BME280;66287;42.658;27.568;2023-02-15T15:51:52;101430.31;;;16.62;29.87
77250;BME280;66287;42.658;27.568;2023-02-15T15:54:18;101426.56;;;16.57;30.04